createdAt,value
2023-02-17T00:02:47.716Z,84.42
2023-02-17T00:07:50.613Z,84.57
2023-02-17T00:12:53.434Z,84.41
2023-02-17T00:17:56.282Z,84.45
2023-02-17T00:22:59.256Z,84.69
2023-02-17T00:28:02.091Z,84.11
2023-02-17T00:33:05.250Z,84.17
2023-02-17T00:38:08.084Z,84.05
2023-02-17T00:43:11.063Z,84.08
2023-02-17T00:48:13.923Z,84.10
2023-02-17T00:53:16.883Z,84.14
2023-02-17T00:58:19.701Z,83.96
2023-02-17T01:03:22.906Z,83.66
2023-02-17T01:08:26.002Z,83.94
2023-02-17T01:13:28.924Z,83.84
2023-02-17T01:18:31.786Z,83.81
2023-02-17T01:23:34.706Z,83.86
2023-02-17T01:28:37.822Z,83.47
2023-02-17T01:33:40.900Z,83.33
2023-02-17T01:38:43.905Z,83.34
2023-02-17T01:44:05.659Z,83.33
2023-02-17T01:49:39.614Z,83.62
2023-02-17T01:54:57.865Z,83.35
2023-02-17T02:00:00.835Z,83.03
2023-02-17T02:05:04.177Z,82.93
2023-02-17T02:10:08.366Z,83.00
2023-02-17T02:15:21.683Z,83.43
2023-02-17T02:21:21.055Z,83.28
2023-02-17T02:27:27.739Z,82.92
2023-02-17T02:32:59.796Z,83.17
2023-02-17T02:38:22.497Z,82.97
2023-02-17T02:43:25.304Z,83.30
2023-02-17T02:48:28.170Z,82.93
2023-02-17T02:53:59.068Z,83.06
2023-02-17T02:59:23.673Z,83.54
2023-02-17T03:04:38.697Z,83.83
2023-02-17T03:09:41.629Z,83.70
2023-02-17T03:14:44.636Z,83.87
2023-02-17T03:19:48.052Z,83.90
2023-02-17T03:24:50.929Z,83.85
2023-02-17T03:29:54.000Z,84.19
2023-02-17T03:34:56.856Z,84.76
2023-02-17T03:39:59.889Z,84.83
2023-02-17T03:45:03.092Z,84.95
2023-02-17T03:50:07.352Z,85.30
2023-02-17T03:55:10.196Z,85.06
2023-02-17T04:00:14.051Z,84.91
2023-02-17T04:05:17.039Z,84.97
2023-02-17T04:10:19.916Z,85.14
2023-02-17T04:15:23.029Z,85.68
2023-02-17T04:20:26.188Z,86.15
2023-02-17T04:25:29.074Z,86.78
2023-02-17T04:30:32.334Z,87.09
2023-02-17T04:35:35.203Z,87.35
2023-02-17T04:40:38.490Z,87.90
2023-02-17T04:45:41.479Z,88.73
2023-02-17T04:50:44.394Z,89.00
2023-02-17T04:55:52.904Z,89.20
2023-02-17T05:00:58.971Z,89.56
2023-02-17T05:06:01.905Z,89.73
2023-02-17T05:11:05.034Z,90.45
2023-02-17T05:16:08.307Z,90.17
2023-02-17T05:21:11.492Z,90.46
2023-02-17T05:26:14.374Z,90.61
2023-02-17T05:31:17.643Z,90.72
2023-02-17T05:36:20.820Z,90.42
2023-02-17T05:41:23.771Z,90.89
2023-02-17T05:46:26.699Z,91.46
2023-02-17T05:51:29.525Z,91.57
2023-02-17T05:56:33.028Z,91.35
2023-02-17T06:01:37.371Z,91.93
2023-02-17T06:06:40.449Z,92.19
2023-02-17T06:11:43.296Z,92.23
2023-02-17T06:16:46.275Z,92.68
2023-02-17T06:21:49.479Z,92.68
2023-02-17T06:26:52.288Z,92.83
2023-02-17T06:31:55.241Z,92.77
2023-02-17T06:36:58.223Z,92.93
2023-02-17T06:42:01.115Z,92.69
2023-02-17T06:47:04.514Z,93.01
2023-02-17T06:52:07.576Z,93.32
2023-02-17T06:57:10.437Z,93.44
2023-02-17T07:02:14.434Z,93.19
2023-02-17T07:07:17.389Z,93.28
2023-02-17T07:12:20.312Z,93.23
2023-02-17T07:17:23.536Z,92.95
2023-02-17T07:22:26.921Z,92.82
2023-02-17T07:27:29.807Z,93.04
2023-02-17T07:32:32.618Z,92.61
2023-02-17T07:37:35.573Z,92.46
2023-02-17T07:42:38.525Z,92.29
2023-02-17T07:47:41.451Z,92.10
2023-02-17T07:52:44.506Z,91.69
2023-02-17T07:57:47.307Z,91.39
2023-02-17T08:02:51.569Z,91.18
2023-02-17T08:08:14.428Z,90.76
2023-02-17T08:13:21.315Z,90.40
2023-02-17T08:18:24.580Z,90.67
2023-02-17T08:23:27.570Z,89.69
2023-02-17T08:28:32.735Z,89.67
2023-02-17T08:33:35.605Z,89.31
2023-02-17T08:38:39.560Z,89.25
2023-02-17T08:43:43.087Z,88.97
2023-02-17T08:48:46.070Z,87.98
2023-02-17T08:53:50.380Z,87.06
2023-02-17T08:58:53.683Z,86.86
2023-02-17T09:03:57.652Z,87.02
2023-02-17T09:09:00.814Z,86.93
2023-02-17T09:14:04.215Z,86.10
2023-02-17T09:19:07.298Z,86.33
2023-02-17T09:24:10.340Z,86.39
2023-02-17T09:29:13.248Z,86.79
2023-02-17T09:34:16.108Z,87.70
2023-02-17T09:39:19.029Z,88.03
2023-02-17T09:44:29.651Z,88.06
2023-02-17T09:49:45.644Z,88.11
2023-02-17T09:55:09.812Z,87.68
2023-02-17T10:00:16.429Z,87.51
2023-02-17T10:05:22.576Z,87.51
2023-02-17T10:10:35.905Z,87.59
2023-02-17T10:15:42.243Z,87.79
2023-02-17T10:21:13.119Z,88.56
2023-02-17T10:26:26.527Z,88.98
2023-02-17T10:32:10.635Z,89.53
2023-02-17T10:37:52.983Z,90.30
2023-02-17T10:42:58.846Z,90.95
2023-02-17T10:48:22.730Z,91.53
2023-02-17T10:53:30.457Z,91.96
2023-02-17T10:59:13.825Z,92.45
2023-02-17T11:04:16.738Z,92.90
2023-02-17T11:09:32.954Z,93.10
2023-02-17T11:14:36.390Z,93.67
2023-02-17T11:19:39.437Z,94.45
2023-02-17T11:24:42.387Z,95.33
2023-02-17T11:29:45.244Z,94.91
2023-02-17T11:34:57.391Z,95.98
2023-02-17T11:40:01.545Z,96.37
2023-02-17T11:45:44.453Z,96.46
2023-02-17T11:51:10.628Z,97.27
2023-02-17T11:56:17.587Z,97.27
2023-02-17T12:01:41.609Z,97.12
2023-02-17T12:07:14.509Z,97.15
2023-02-17T12:12:22.570Z,96.71
2023-02-17T12:17:51.951Z,96.64
2023-02-17T12:23:19.919Z,96.70
2023-02-17T12:28:47.914Z,96.87
2023-02-17T12:34:13.025Z,96.64
2023-02-17T12:39:22.526Z,96.46
2023-02-17T12:44:29.241Z,96.51
2023-02-17T12:49:44.369Z,96.23
2023-02-17T12:55:05.532Z,96.47
2023-02-17T13:00:33.653Z,96.53
2023-02-17T13:05:58.877Z,96.29
2023-02-17T13:11:08.106Z,96.71
2023-02-17T13:16:13.167Z,96.51
2023-02-17T13:21:17.571Z,96.44
2023-02-17T13:26:37.677Z,96.87
2023-02-17T13:31:53.472Z,97.28
2023-02-17T13:36:56.907Z,97.32
2023-02-17T13:42:00.928Z,97.95
2023-02-17T13:47:37.725Z,98.47
2023-02-17T13:52:40.974Z,99.38
2023-02-17T13:57:44.336Z,99.68
2023-02-17T14:02:58.855Z,100.00
2023-02-17T14:08:22.212Z,99.98
2023-02-17T14:13:25.349Z,100.00
2023-02-17T14:18:46.096Z,100.00
2023-02-17T14:23:52.304Z,100.00
2023-02-17T14:28:58.457Z,100.00
2023-02-17T14:34:02.204Z,100.00
2023-02-17T14:39:08.350Z,100.00
2023-02-17T14:44:11.370Z,100.00
2023-02-17T14:49:14.259Z,100.00
2023-02-17T14:54:17.556Z,100.00
2023-02-17T14:59:20.474Z,100.00
2023-02-17T15:04:23.503Z,100.00
2023-02-17T15:09:30.546Z,100.00
2023-02-17T15:14:33.529Z,100.00
2023-02-17T15:19:36.599Z,100.00
2023-02-17T15:24:40.255Z,100.00
2023-02-17T15:29:43.254Z,100.00
2023-02-17T15:34:46.295Z,100.00
2023-02-17T15:39:49.213Z,100.00
2023-02-17T15:44:52.680Z,100.00
2023-02-17T15:49:56.093Z,100.00
2023-02-17T15:55:00.438Z,100.00
2023-02-17T16:00:03.952Z,100.00
2023-02-17T16:05:06.996Z,100.00
2023-02-17T16:10:13.856Z,100.00
2023-02-17T16:15:22.122Z,100.00
2023-02-17T16:20:34.676Z,100.00
2023-02-17T16:25:37.968Z,100.00
2023-02-17T16:30:41.014Z,100.00
2023-02-17T16:35:43.888Z,100.00
2023-02-17T16:40:48.771Z,100.00
2023-02-17T16:46:00.912Z,100.00
2023-02-17T16:51:04.339Z,100.00
2023-02-17T16:56:17.573Z,100.00
2023-02-17T17:01:20.366Z,100.00
2023-02-17T17:06:29.675Z,100.00
2023-02-17T17:11:32.670Z,100.00
2023-02-17T17:16:35.684Z,100.00
2023-02-17T17:21:38.549Z,100.00
2023-02-17T17:26:45.073Z,100.00
2023-02-17T17:31:48.122Z,100.00
2023-02-17T17:36:50.978Z,100.00
2023-02-17T17:41:53.811Z,100.00
2023-02-17T17:46:58.192Z,100.00
2023-02-17T17:52:01.073Z,100.00
2023-02-17T17:57:03.864Z,100.00
2023-02-17T18:02:07.039Z,100.00
2023-02-17T18:07:09.827Z,100.00
2023-02-17T18:12:15.937Z,100.00
2023-02-17T18:17:18.887Z,100.00
2023-02-17T18:22:22.438Z,100.00
2023-02-17T18:27:25.216Z,100.00
2023-02-17T18:32:27.975Z,100.00
2023-02-17T18:37:30.836Z,100.00
2023-02-17T18:42:34.115Z,100.00
2023-02-17T18:47:37.077Z,100.00
2023-02-17T18:52:40.301Z,100.00
2023-02-17T18:57:44.913Z,100.00
2023-02-17T19:02:47.871Z,100.00
2023-02-17T19:07:50.672Z,100.00
2023-02-17T19:12:53.505Z,100.00
2023-02-17T19:17:57.117Z,100.00
2023-02-17T19:23:01.519Z,100.00
2023-02-17T19:28:04.772Z,100.00
2023-02-17T19:33:07.541Z,100.00
2023-02-17T19:38:10.335Z,100.00
2023-02-17T19:43:13.259Z,100.00
2023-02-17T19:48:16.183Z,100.00
2023-02-17T19:53:18.999Z,100.00
2023-02-17T19:58:21.840Z,100.00
2023-02-17T20:03:24.680Z,100.00
2023-02-17T20:08:27.446Z,100.00
2023-02-17T20:13:34.750Z,100.00
2023-02-17T20:18:48.432Z,100.00
2023-02-17T20:23:51.554Z,100.00
2023-02-17T20:28:54.824Z,100.00
2023-02-17T20:33:57.657Z,100.00
2023-02-17T20:39:00.600Z,100.00
2023-02-17T20:44:05.078Z,100.00
2023-02-17T20:49:08.162Z,100.00
2023-02-17T20:54:10.967Z,100.00
2023-02-17T20:59:14.105Z,100.00
2023-02-17T21:04:16.822Z,100.00
2023-02-17T21:09:19.746Z,100.00
2023-02-17T21:14:22.551Z,100.00
2023-02-17T21:19:25.474Z,100.00
2023-02-17T21:24:28.257Z,100.00
2023-02-17T21:29:31.078Z,100.00
2023-02-17T21:34:39.666Z,100.00
2023-02-17T21:39:42.358Z,100.00
2023-02-17T21:44:55.170Z,100.00
2023-02-17T21:49:58.174Z,100.00
2023-02-17T21:55:01.748Z,100.00
2023-02-17T22:00:05.492Z,100.00
2023-02-17T22:05:09.466Z,100.00
2023-02-17T22:10:12.408Z,100.00
2023-02-17T22:15:16.200Z,100.00
2023-02-17T22:20:19.349Z,100.00
2023-02-17T22:25:22.928Z,100.00
2023-02-17T22:30:26.395Z,100.00
2023-02-17T22:35:29.430Z,100.00
2023-02-17T22:40:32.379Z,100.00
2023-02-17T22:45:35.327Z,100.00
2023-02-17T22:50:41.677Z,99.54
2023-02-17T22:55:54.731Z,99.63
2023-02-17T23:01:08.374Z,99.80
2023-02-17T23:06:20.416Z,100.00
2023-02-17T23:11:55.722Z,100.00
2023-02-17T23:17:04.602Z,100.00
2023-02-17T23:22:11.004Z,100.00
2023-02-17T23:27:14.071Z,99.83
2023-02-17T23:32:16.839Z,93.70
2023-02-17T23:37:19.788Z,91.43
2023-02-17T23:42:22.878Z,89.84
2023-02-17T23:47:25.679Z,87.62
2023-02-17T23:52:28.548Z,86.74
2023-02-17T23:57:35.133Z,87.81
